CEB798 RPLL-RPMD
Flight info
| Callsign | CEB798 |
|---|---|
| Flight time | 1h 24m |
| Altitude | 37000 |
| Route | IPATA2R IPATA B462 MASBA W9A BN W9 RIMAR RIMAR2R |
| Aircraft | A20N/M-SDE2E3FGHIRWXY/LB1 |
Departure
| Time | 2026-05-07 07:35 |
|---|---|
| Airport | Ninoy Aquino International Airport (RPLL) |
Arrival
| Time | 2026-05-07 08:59 |
|---|---|
| Airport | Francisco Bangoy International Airport (RPMD) |
| Time | Latitude | Longitude | Altitude | Speed | Heading |
|---|---|---|---|---|---|
| 2026-05-07 07:09 | 14.50371 | 121.00475 | 40 ft | 0 kts | 308° |
| 2026-05-07 07:20 | 14.50370 | 121.00477 | 40 ft | 0 kts | 308° |
| 2026-05-07 07:21 | 14.50369 | 121.00479 | 40 ft | 1 kts | 316° |
| 2026-05-07 07:21 | 14.50363 | 121.00484 | 40 ft | 1 kts | 359° |
| 2026-05-07 07:21 | 14.50355 | 121.00483 | 40 ft | 1 kts | 41° |
| 2026-05-07 07:21 | 14.50351 | 121.00479 | 37 ft | 0 kts | 71° |
| 2026-05-07 07:26 | 14.50352 | 121.00494 | 37 ft | 3 kts | 91° |
| 2026-05-07 07:26 | 14.50338 | 121.00504 | 40 ft | 2 kts | 172° |
| 2026-05-07 07:27 | 14.50333 | 121.00504 | 40 ft | 1 kts | 175° |
| 2026-05-07 07:27 | 14.50324 | 121.00505 | 40 ft | 0 kts | 173° |
| 2026-05-07 07:29 | 14.50313 | 121.00506 | 40 ft | 3 kts | 173° |
| 2026-05-07 07:29 | 14.50311 | 121.00505 | 40 ft | 1 kts | 193° |
| 2026-05-07 07:30 | 14.50286 | 121.00485 | 39 ft | 9 kts | 230° |
| 2026-05-07 07:30 | 14.50239 | 121.00406 | 39 ft | 12 kts | 240° |
| 2026-05-07 07:30 | 14.50178 | 121.00339 | 38 ft | 15 kts | 189° |
| 2026-05-07 07:30 | 14.50086 | 121.00278 | 37 ft | 19 kts | 237° |
| 2026-05-07 07:31 | 14.50013 | 121.00147 | 36 ft | 22 kts | 240° |
| 2026-05-07 07:31 | 14.49933 | 121.00004 | 35 ft | 16 kts | 239° |
| 2026-05-07 07:31 | 14.49910 | 120.99977 | 35 ft | 2 kts | 217° |
| 2026-05-07 07:31 | 14.49891 | 120.99973 | 35 ft | 4 kts | 184° |
| 2026-05-07 07:32 | 14.49846 | 120.99986 | 35 ft | 10 kts | 154° |
| 2026-05-07 07:32 | 14.49809 | 121.00051 | 35 ft | 13 kts | 63° |
| 2026-05-07 07:32 | 14.49827 | 121.00089 | 34 ft | 3 kts | 63° |
| 2026-05-07 07:32 | 14.49831 | 121.00097 | 34 ft | 0 kts | 63° |
| 2026-05-07 07:34 | 14.49834 | 121.00103 | 35 ft | 10 kts | 63° |
| 2026-05-07 07:34 | 14.49992 | 121.00402 | 36 ft | 82 kts | 59° |
| 2026-05-07 07:34 | 14.50382 | 121.01098 | 46 ft | 137 kts | 60° |
| 2026-05-07 07:34 | 14.50924 | 121.02057 | 310 ft | 159 kts | 61° |
| 2026-05-07 07:35 | 14.51507 | 121.03016 | 891 ft | 163 kts | 62° |
| 2026-05-07 07:35 | 14.52078 | 121.04052 | 1521 ft | 164 kts | 63° |
| 2026-05-07 07:35 | 14.52636 | 121.05097 | 2075 ft | 173 kts | 63° |
| 2026-05-07 07:35 | 14.53250 | 121.06242 | 2466 ft | 191 kts | 62° |
| 2026-05-07 07:36 | 14.53943 | 121.07512 | 2789 ft | 214 kts | 62° |
| 2026-05-07 07:36 | 14.54706 | 121.08896 | 3227 ft | 235 kts | 61° |
| 2026-05-07 07:36 | 14.55548 | 121.10418 | 3723 ft | 254 kts | 61° |
| 2026-05-07 07:36 | 14.56451 | 121.12049 | 4386 ft | 264 kts | 62° |
| 2026-05-07 07:37 | 14.57156 | 121.13800 | 5286 ft | 265 kts | 74° |
| 2026-05-07 07:37 | 14.57498 | 121.15659 | 6090 ft | 270 kts | 84° |
| 2026-05-07 07:37 | 14.57702 | 121.17604 | 6678 ft | 274 kts | 83° |
| 2026-05-07 07:37 | 14.57919 | 121.19571 | 6915 ft | 276 kts | 83° |
| 2026-05-07 07:38 | 14.58142 | 121.21544 | 7003 ft | 277 kts | 83° |
| 2026-05-07 07:38 | 14.58368 | 121.23520 | 7019 ft | 276 kts | 84° |
| 2026-05-07 07:38 | 14.58245 | 121.25467 | 7042 ft | 277 kts | 106° |
| 2026-05-07 07:38 | 14.57290 | 121.27223 | 7176 ft | 286 kts | 133° |
| 2026-05-07 07:39 | 14.55724 | 121.28487 | 7998 ft | 285 kts | 142° |
| 2026-05-07 07:39 | 14.54117 | 121.29712 | 8823 ft | 288 kts | 141° |
| 2026-05-07 07:39 | 14.52524 | 121.30939 | 9680 ft | 289 kts | 141° |
| 2026-05-07 07:39 | 14.50899 | 121.32195 | 10302 ft | 297 kts | 141° |
| 2026-05-07 07:40 | 14.49182 | 121.33523 | 10530 ft | 319 kts | 141° |
| 2026-05-07 07:40 | 14.47343 | 121.34939 | 10720 ft | 340 kts | 142° |
| 2026-05-07 07:40 | 14.45404 | 121.36424 | 11312 ft | 346 kts | 142° |
| 2026-05-07 07:40 | 14.43474 | 121.37902 | 11995 ft | 350 kts | 142° |
| 2026-05-07 07:41 | 14.41506 | 121.39409 | 12696 ft | 354 kts | 142° |
| 2026-05-07 07:41 | 14.40195 | 121.40412 | 13148 ft | 356 kts | 142° |
| 2026-05-07 07:41 | 14.37543 | 121.42442 | 14046 ft | 359 kts | 142° |
| 2026-05-07 07:41 | 14.35514 | 121.43996 | 14526 ft | 366 kts | 142° |
| 2026-05-07 07:42 | 14.34161 | 121.45032 | 14958 ft | 365 kts | 142° |
| 2026-05-07 07:42 | 14.32105 | 121.46606 | 15503 ft | 370 kts | 142° |
| 2026-05-07 07:42 | 14.30019 | 121.48202 | 16085 ft | 373 kts | 142° |
| 2026-05-07 07:42 | 14.27934 | 121.49795 | 16715 ft | 374 kts | 142° |
| 2026-05-07 07:43 | 14.25824 | 121.51407 | 17194 ft | 379 kts | 142° |
| 2026-05-07 07:43 | 14.23701 | 121.53028 | 17781 ft | 380 kts | 141° |
| 2026-05-07 07:43 | 14.21596 | 121.54634 | 18367 ft | 381 kts | 142° |
| 2026-05-07 07:43 | 14.19434 | 121.56285 | 18699 ft | 387 kts | 141° |
| 2026-05-07 07:44 | 14.17293 | 121.57922 | 19164 ft | 390 kts | 142° |
| 2026-05-07 07:44 | 14.15094 | 121.59601 | 19530 ft | 395 kts | 142° |
| 2026-05-07 07:44 | 14.12879 | 121.61287 | 20050 ft | 395 kts | 142° |
| 2026-05-07 07:44 | 14.10646 | 121.62990 | 20434 ft | 400 kts | 142° |
| 2026-05-07 07:45 | 14.08403 | 121.64697 | 20921 ft | 401 kts | 142° |
| 2026-05-07 07:45 | 14.06163 | 121.66403 | 21297 ft | 406 kts | 142° |
| 2026-05-07 07:45 | 14.03877 | 121.68149 | 21691 ft | 410 kts | 142° |
| 2026-05-07 07:45 | 14.01573 | 121.69909 | 22123 ft | 413 kts | 142° |
| 2026-05-07 07:46 | 13.99253 | 121.71679 | 22491 ft | 417 kts | 142° |
| 2026-05-07 07:46 | 13.96934 | 121.73447 | 22907 ft | 420 kts | 142° |
| 2026-05-07 07:46 | 13.94560 | 121.75258 | 23308 ft | 423 kts | 142° |
| 2026-05-07 07:46 | 13.92200 | 121.77054 | 23656 ft | 426 kts | 142° |
| 2026-05-07 07:47 | 13.89806 | 121.78878 | 24029 ft | 428 kts | 142° |
| 2026-05-07 07:47 | 13.87444 | 121.80765 | 24389 ft | 429 kts | 137° |
| 2026-05-07 07:47 | 13.85304 | 121.82910 | 24751 ft | 430 kts | 131° |
| 2026-05-07 07:47 | 13.83366 | 121.85272 | 25087 ft | 432 kts | 129° |
| 2026-05-07 07:48 | 13.81460 | 121.87624 | 25432 ft | 434 kts | 129° |
| 2026-05-07 07:48 | 13.79510 | 121.90018 | 25767 ft | 436 kts | 129° |
| 2026-05-07 07:48 | 13.77550 | 121.92421 | 26078 ft | 439 kts | 129° |
| 2026-05-07 07:48 | 13.75578 | 121.94837 | 26390 ft | 441 kts | 129° |
| 2026-05-07 07:49 | 13.73598 | 121.97262 | 26723 ft | 443 kts | 129° |
| 2026-05-07 07:49 | 13.71630 | 121.99671 | 27047 ft | 445 kts | 129° |
| 2026-05-07 07:49 | 13.69636 | 122.02112 | 27328 ft | 447 kts | 130° |
| 2026-05-07 07:49 | 13.67621 | 122.04579 | 27635 ft | 449 kts | 130° |
| 2026-05-07 07:50 | 13.65600 | 122.07051 | 27933 ft | 451 kts | 130° |
| 2026-05-07 07:50 | 13.63571 | 122.09532 | 28177 ft | 455 kts | 130° |
| 2026-05-07 07:50 | 13.61527 | 122.12031 | 28442 ft | 457 kts | 130° |
| 2026-05-07 07:50 | 13.59497 | 122.14513 | 28720 ft | 459 kts | 130° |
| 2026-05-07 07:51 | 13.57436 | 122.17031 | 28998 ft | 461 kts | 130° |
| 2026-05-07 07:51 | 13.55354 | 122.19575 | 29250 ft | 463 kts | 130° |
| 2026-05-07 07:51 | 13.53287 | 122.22099 | 29496 ft | 466 kts | 130° |
| 2026-05-07 07:51 | 13.51181 | 122.24670 | 29784 ft | 468 kts | 130° |
| 2026-05-07 07:52 | 13.49102 | 122.27208 | 30037 ft | 469 kts | 130° |
| 2026-05-07 07:52 | 13.46982 | 122.29795 | 30221 ft | 472 kts | 130° |
| 2026-05-07 07:52 | 13.44858 | 122.32387 | 30436 ft | 475 kts | 131° |
| 2026-05-07 07:52 | 13.42745 | 122.34964 | 30697 ft | 476 kts | 130° |
| 2026-05-07 07:53 | 13.40595 | 122.37585 | 30970 ft | 477 kts | 131° |
| 2026-05-07 07:53 | 13.38448 | 122.40202 | 31271 ft | 477 kts | 131° |
| 2026-05-07 07:53 | 13.36336 | 122.42776 | 31565 ft | 477 kts | 131° |
| 2026-05-07 07:53 | 13.34196 | 122.45382 | 31850 ft | 476 kts | 131° |
| 2026-05-07 07:54 | 13.32056 | 122.47988 | 32147 ft | 476 kts | 131° |
| 2026-05-07 07:54 | 13.29918 | 122.50591 | 32426 ft | 476 kts | 131° |
| 2026-05-07 07:54 | 13.27775 | 122.53199 | 32695 ft | 476 kts | 131° |
| 2026-05-07 07:54 | 13.25645 | 122.55789 | 32903 ft | 478 kts | 131° |
| 2026-05-07 07:55 | 13.23495 | 122.58403 | 33169 ft | 478 kts | 132° |
| 2026-05-07 07:55 | 13.21351 | 122.61012 | 33435 ft | 477 kts | 132° |
| 2026-05-07 07:55 | 13.19231 | 122.63588 | 33654 ft | 478 kts | 132° |
| 2026-05-07 07:55 | 13.17079 | 122.66202 | 33884 ft | 478 kts | 132° |
| 2026-05-07 07:56 | 13.14928 | 122.68815 | 34121 ft | 477 kts | 132° |
| 2026-05-07 07:56 | 13.12781 | 122.71422 | 34373 ft | 475 kts | 132° |
| 2026-05-07 07:56 | 13.10672 | 122.73983 | 34605 ft | 474 kts | 132° |
| 2026-05-07 07:56 | 13.08542 | 122.76568 | 34779 ft | 473 kts | 132° |
| 2026-05-07 07:57 | 13.06415 | 122.79149 | 34829 ft | 472 kts | 132° |
| 2026-05-07 07:57 | 13.02180 | 122.84284 | 34829 ft | 472 kts | 132° |
| 2026-05-07 07:58 | 12.97966 | 122.89390 | 34826 ft | 472 kts | 132° |
| 2026-05-07 07:58 | 12.93709 | 122.94546 | 34829 ft | 471 kts | 132° |
| 2026-05-07 07:59 | 12.89490 | 122.99653 | 34829 ft | 472 kts | 132° |
| 2026-05-07 07:59 | 12.85236 | 123.04800 | 34829 ft | 471 kts | 132° |
| 2026-05-07 08:00 | 12.81006 | 123.09914 | 34829 ft | 472 kts | 132° |
| 2026-05-07 08:00 | 12.76754 | 123.15051 | 34831 ft | 471 kts | 132° |
| 2026-05-07 08:01 | 12.72514 | 123.20172 | 34830 ft | 471 kts | 132° |
| 2026-05-07 08:01 | 12.68294 | 123.25266 | 34829 ft | 471 kts | 132° |
| 2026-05-07 08:02 | 12.64043 | 123.30394 | 34829 ft | 471 kts | 132° |
| 2026-05-07 08:02 | 12.59825 | 123.35480 | 34829 ft | 471 kts | 132° |
| 2026-05-07 08:03 | 12.55575 | 123.40601 | 34830 ft | 471 kts | 132° |
| 2026-05-07 08:03 | 12.51360 | 123.45676 | 34830 ft | 469 kts | 132° |
| 2026-05-07 08:04 | 12.47125 | 123.50774 | 34831 ft | 469 kts | 132° |
| 2026-05-07 08:04 | 12.42907 | 123.55848 | 34831 ft | 469 kts | 132° |
| 2026-05-07 08:05 | 12.38584 | 123.60851 | 34832 ft | 468 kts | 138° |
| 2026-05-07 08:05 | 12.33452 | 123.64929 | 34832 ft | 465 kts | 151° |
| 2026-05-07 08:06 | 12.27803 | 123.68073 | 34836 ft | 464 kts | 153° |
| 2026-05-07 08:06 | 12.22124 | 123.71209 | 34835 ft | 465 kts | 153° |
| 2026-05-07 08:07 | 12.16433 | 123.74352 | 34835 ft | 461 kts | 153° |
| 2026-05-07 08:07 | 12.10758 | 123.77482 | 34832 ft | 463 kts | 153° |
| 2026-05-07 08:08 | 12.05113 | 123.80592 | 34833 ft | 462 kts | 153° |
| 2026-05-07 08:08 | 11.99463 | 123.83704 | 34832 ft | 463 kts | 153° |
| 2026-05-07 08:09 | 11.93778 | 123.86834 | 34831 ft | 462 kts | 153° |
| 2026-05-07 08:09 | 11.88108 | 123.89954 | 34832 ft | 462 kts | 153° |
| 2026-05-07 08:10 | 11.82447 | 123.93068 | 34829 ft | 464 kts | 153° |
| 2026-05-07 08:10 | 11.76751 | 123.96199 | 34829 ft | 463 kts | 153° |
| 2026-05-07 08:11 | 11.71117 | 123.99295 | 34829 ft | 461 kts | 153° |
| 2026-05-07 08:11 | 11.65439 | 124.02414 | 34829 ft | 462 kts | 153° |
| 2026-05-07 08:12 | 11.59804 | 124.05507 | 34829 ft | 462 kts | 153° |
| 2026-05-07 08:12 | 11.54141 | 124.08615 | 34828 ft | 462 kts | 153° |
| 2026-05-07 08:13 | 11.48509 | 124.11704 | 34831 ft | 457 kts | 153° |
| 2026-05-07 08:13 | 11.42914 | 124.14772 | 34826 ft | 458 kts | 153° |
| 2026-05-07 08:14 | 11.37273 | 124.17863 | 34827 ft | 459 kts | 153° |
| 2026-05-07 08:14 | 11.31673 | 124.20931 | 34826 ft | 459 kts | 153° |
| 2026-05-07 08:15 | 11.26041 | 124.24013 | 34825 ft | 458 kts | 153° |
| 2026-05-07 08:15 | 11.20437 | 124.27081 | 34826 ft | 457 kts | 153° |
| 2026-05-07 08:16 | 11.14856 | 124.30134 | 34826 ft | 457 kts | 153° |
| 2026-05-07 08:16 | 11.09222 | 124.33214 | 34825 ft | 457 kts | 153° |
| 2026-05-07 08:17 | 11.03629 | 124.36256 | 34823 ft | 457 kts | 153° |
| 2026-05-07 08:17 | 10.97998 | 124.39282 | 34826 ft | 457 kts | 153° |
| 2026-05-07 08:18 | 10.92365 | 124.42312 | 34823 ft | 457 kts | 153° |
| 2026-05-07 08:18 | 10.86763 | 124.45325 | 34826 ft | 457 kts | 152° |
| 2026-05-07 08:19 | 10.81151 | 124.48346 | 34824 ft | 455 kts | 152° |
| 2026-05-07 08:19 | 10.75524 | 124.51376 | 34824 ft | 457 kts | 152° |
| 2026-05-07 08:20 | 10.69943 | 124.54409 | 34826 ft | 454 kts | 152° |
| 2026-05-07 08:20 | 10.64389 | 124.57430 | 34823 ft | 455 kts | 152° |
| 2026-05-07 08:21 | 10.58776 | 124.60477 | 34823 ft | 457 kts | 152° |
| 2026-05-07 08:21 | 10.53139 | 124.63532 | 34822 ft | 458 kts | 152° |
| 2026-05-07 08:22 | 10.47543 | 124.66569 | 34823 ft | 458 kts | 152° |
| 2026-05-07 08:22 | 10.41943 | 124.69606 | 34824 ft | 458 kts | 152° |
| 2026-05-07 08:23 | 10.36312 | 124.72657 | 34823 ft | 458 kts | 152° |
| 2026-05-07 08:23 | 10.30690 | 124.75697 | 34827 ft | 457 kts | 151° |
| 2026-05-07 08:24 | 10.25100 | 124.78724 | 34821 ft | 455 kts | 151° |
| 2026-05-07 08:24 | 10.19489 | 124.81761 | 34820 ft | 461 kts | 150° |
| 2026-05-07 08:25 | 10.13816 | 124.84830 | 34819 ft | 461 kts | 150° |
| 2026-05-07 08:25 | 10.08173 | 124.87880 | 34818 ft | 461 kts | 150° |
| 2026-05-07 08:26 | 9.99691 | 124.92466 | 34814 ft | 461 kts | 150° |
| 2026-05-07 08:26 | 9.94023 | 124.95528 | 34815 ft | 461 kts | 150° |
| 2026-05-07 08:27 | 9.88368 | 124.98582 | 34813 ft | 465 kts | 150° |
| 2026-05-07 08:27 | 9.82623 | 125.01684 | 34813 ft | 467 kts | 151° |
| 2026-05-07 08:28 | 9.77834 | 125.04272 | 34809 ft | 469 kts | 151° |
| 2026-05-07 08:28 | 9.71153 | 125.07874 | 34810 ft | 468 kts | 151° |
| 2026-05-07 08:29 | 9.66339 | 125.10467 | 34810 ft | 468 kts | 151° |
| 2026-05-07 08:29 | 9.60619 | 125.13546 | 34807 ft | 467 kts | 151° |
| 2026-05-07 08:30 | 9.54841 | 125.16636 | 34812 ft | 467 kts | 151° |
| 2026-05-07 08:30 | 9.49101 | 125.19692 | 34807 ft | 466 kts | 152° |
| 2026-05-07 08:31 | 9.43391 | 125.22735 | 34807 ft | 466 kts | 152° |
| 2026-05-07 08:31 | 9.37627 | 125.25805 | 34813 ft | 467 kts | 152° |
| 2026-05-07 08:32 | 9.31912 | 125.28849 | 34813 ft | 465 kts | 152° |
| 2026-05-07 08:32 | 9.26162 | 125.31913 | 34810 ft | 465 kts | 152° |
| 2026-05-07 08:33 | 9.20453 | 125.34952 | 34818 ft | 466 kts | 152° |
| 2026-05-07 08:33 | 9.14680 | 125.38023 | 34818 ft | 466 kts | 152° |
| 2026-05-07 08:34 | 9.08977 | 125.41057 | 34818 ft | 466 kts | 152° |
| 2026-05-07 08:34 | 9.03224 | 125.44115 | 34818 ft | 465 kts | 152° |
| 2026-05-07 08:35 | 8.97454 | 125.47024 | 34833 ft | 466 kts | 158° |
| 2026-05-07 08:35 | 8.91184 | 125.48769 | 34607 ft | 470 kts | 171° |
| 2026-05-07 08:36 | 8.87927 | 125.49130 | 34382 ft | 468 kts | 174° |
| 2026-05-07 08:36 | 8.84677 | 125.49448 | 34155 ft | 469 kts | 174° |
| 2026-05-07 08:36 | 8.81455 | 125.49773 | 33942 ft | 472 kts | 174° |
| 2026-05-07 08:36 | 8.78167 | 125.50108 | 33703 ft | 472 kts | 174° |
| 2026-05-07 08:37 | 8.74906 | 125.50440 | 33450 ft | 468 kts | 174° |
| 2026-05-07 08:37 | 8.71682 | 125.50767 | 33196 ft | 463 kts | 174° |
| 2026-05-07 08:37 | 8.68469 | 125.51093 | 32950 ft | 464 kts | 174° |
| 2026-05-07 08:37 | 8.65284 | 125.51416 | 32703 ft | 466 kts | 173° |
| 2026-05-07 08:38 | 8.62047 | 125.51744 | 32444 ft | 466 kts | 174° |
| 2026-05-07 08:38 | 8.58822 | 125.52070 | 31822 ft | 465 kts | 173° |
| 2026-05-07 08:38 | 8.55587 | 125.52397 | 30837 ft | 466 kts | 173° |
| 2026-05-07 08:38 | 8.52393 | 125.52720 | 30262 ft | 464 kts | 173° |
| 2026-05-07 08:39 | 8.49210 | 125.53024 | 29835 ft | 456 kts | 173° |
| 2026-05-07 08:39 | 8.46050 | 125.53304 | 29216 ft | 451 kts | 173° |
| 2026-05-07 08:39 | 8.42931 | 125.53576 | 28635 ft | 446 kts | 173° |
| 2026-05-07 08:39 | 8.39886 | 125.53843 | 28070 ft | 441 kts | 173° |
| 2026-05-07 08:40 | 8.36839 | 125.54114 | 27505 ft | 437 kts | 173° |
| 2026-05-07 08:40 | 8.33804 | 125.54385 | 26936 ft | 433 kts | 173° |
| 2026-05-07 08:40 | 8.30813 | 125.54653 | 26366 ft | 430 kts | 173° |
| 2026-05-07 08:40 | 8.27880 | 125.54917 | 25820 ft | 427 kts | 173° |
| 2026-05-07 08:41 | 8.24910 | 125.55183 | 25249 ft | 425 kts | 173° |
| 2026-05-07 08:41 | 8.21967 | 125.55447 | 24673 ft | 423 kts | 173° |
| 2026-05-07 08:41 | 8.19041 | 125.55709 | 24106 ft | 421 kts | 173° |
| 2026-05-07 08:41 | 8.16122 | 125.55970 | 23533 ft | 420 kts | 173° |
| 2026-05-07 08:42 | 8.13251 | 125.56227 | 22901 ft | 418 kts | 173° |
| 2026-05-07 08:42 | 8.10361 | 125.56486 | 22402 ft | 413 kts | 173° |
| 2026-05-07 08:42 | 8.07500 | 125.56742 | 21850 ft | 409 kts | 173° |
| 2026-05-07 08:42 | 8.04675 | 125.56996 | 21296 ft | 406 kts | 173° |
| 2026-05-07 08:43 | 8.01901 | 125.57244 | 20752 ft | 402 kts | 173° |
| 2026-05-07 08:43 | 7.99112 | 125.57439 | 20175 ft | 402 kts | 178° |
| 2026-05-07 08:43 | 7.96316 | 125.57286 | 19607 ft | 402 kts | 185° |
| 2026-05-07 08:43 | 7.93608 | 125.56755 | 19077 ft | 401 kts | 193° |
| 2026-05-07 08:44 | 7.90933 | 125.55960 | 18525 ft | 400 kts | 194° |
| 2026-05-07 08:44 | 7.88263 | 125.55169 | 17954 ft | 398 kts | 194° |
| 2026-05-07 08:44 | 7.85606 | 125.54390 | 17391 ft | 394 kts | 194° |
| 2026-05-07 08:44 | 7.82977 | 125.53619 | 16850 ft | 391 kts | 194° |
| 2026-05-07 08:45 | 7.80398 | 125.52864 | 16317 ft | 388 kts | 194° |
| 2026-05-07 08:45 | 7.77811 | 125.52105 | 15766 ft | 385 kts | 194° |
| 2026-05-07 08:45 | 7.75238 | 125.51349 | 15224 ft | 383 kts | 194° |
| 2026-05-07 08:45 | 7.72682 | 125.50598 | 14844 ft | 376 kts | 194° |
| 2026-05-07 08:46 | 7.70215 | 125.49875 | 14337 ft | 374 kts | 194° |
| 2026-05-07 08:46 | 7.67698 | 125.49136 | 13821 ft | 373 kts | 194° |
| 2026-05-07 08:46 | 7.65206 | 125.48405 | 13281 ft | 370 kts | 194° |
| 2026-05-07 08:46 | 7.62739 | 125.47682 | 12762 ft | 367 kts | 194° |
| 2026-05-07 08:47 | 7.60287 | 125.46964 | 12247 ft | 364 kts | 194° |
| 2026-05-07 08:47 | 7.57895 | 125.46265 | 11736 ft | 361 kts | 194° |
| 2026-05-07 08:47 | 7.55480 | 125.45559 | 11236 ft | 359 kts | 194° |
| 2026-05-07 08:47 | 7.53089 | 125.44859 | 10708 ft | 356 kts | 194° |
| 2026-05-07 08:48 | 7.50747 | 125.44173 | 10401 ft | 349 kts | 194° |
| 2026-05-07 08:48 | 7.48451 | 125.43500 | 10271 ft | 335 kts | 194° |
| 2026-05-07 08:48 | 7.46254 | 125.42856 | 10153 ft | 322 kts | 194° |
| 2026-05-07 08:48 | 7.44133 | 125.42235 | 10018 ft | 310 kts | 194° |
| 2026-05-07 08:49 | 7.42103 | 125.41641 | 9742 ft | 305 kts | 194° |
| 2026-05-07 08:49 | 7.40061 | 125.41045 | 9392 ft | 302 kts | 194° |
| 2026-05-07 08:49 | 7.38057 | 125.40460 | 8928 ft | 299 kts | 194° |
| 2026-05-07 08:49 | 7.36074 | 125.39882 | 8460 ft | 292 kts | 194° |
| 2026-05-07 08:50 | 7.34102 | 125.39563 | 8095 ft | 279 kts | 179° |
| 2026-05-07 08:50 | 7.32212 | 125.39732 | 7748 ft | 267 kts | 166° |
| 2026-05-07 08:50 | 7.30429 | 125.40131 | 7540 ft | 271 kts | 166° |
| 2026-05-07 08:50 | 7.28490 | 125.40553 | 7425 ft | 289 kts | 166° |
| 2026-05-07 08:51 | 7.26520 | 125.40971 | 7133 ft | 291 kts | 166° |
| 2026-05-07 08:51 | 7.24535 | 125.41389 | 6759 ft | 291 kts | 166° |
| 2026-05-07 08:51 | 7.22557 | 125.41805 | 6385 ft | 290 kts | 166° |
| 2026-05-07 08:51 | 7.20606 | 125.42217 | 6010 ft | 289 kts | 166° |
| 2026-05-07 08:52 | 7.18638 | 125.42633 | 5629 ft | 287 kts | 166° |
| 2026-05-07 08:52 | 7.16686 | 125.43045 | 5285 ft | 285 kts | 166° |
| 2026-05-07 08:52 | 7.14752 | 125.43452 | 4965 ft | 282 kts | 166° |
| 2026-05-07 08:52 | 7.12876 | 125.43847 | 4622 ft | 274 kts | 166° |
| 2026-05-07 08:53 | 7.11012 | 125.44239 | 4178 ft | 269 kts | 166° |
| 2026-05-07 08:53 | 7.09227 | 125.44614 | 4016 ft | 255 kts | 166° |
| 2026-05-07 08:53 | 7.07575 | 125.45048 | 3847 ft | 236 kts | 152° |
| 2026-05-07 08:53 | 7.06404 | 125.46024 | 3674 ft | 213 kts | 121° |
| 2026-05-07 08:54 | 7.05710 | 125.47278 | 3540 ft | 200 kts | 116° |
| 2026-05-07 08:54 | 7.05061 | 125.48485 | 3411 ft | 191 kts | 116° |
| 2026-05-07 08:54 | 7.04434 | 125.49646 | 3333 ft | 193 kts | 117° |
| 2026-05-07 08:54 | 7.03789 | 125.50841 | 3224 ft | 192 kts | 117° |
| 2026-05-07 08:55 | 7.03163 | 125.52007 | 3189 ft | 186 kts | 115° |
| 2026-05-07 08:55 | 7.02981 | 125.53192 | 3197 ft | 168 kts | 74° |
| 2026-05-07 08:55 | 7.03586 | 125.54176 | 3193 ft | 166 kts | 48° |
| 2026-05-07 08:55 | 7.04352 | 125.55040 | 3021 ft | 162 kts | 48° |
| 2026-05-07 08:56 | 7.05082 | 125.55873 | 2558 ft | 160 kts | 49° |
| 2026-05-07 08:56 | 7.05799 | 125.56701 | 2217 ft | 151 kts | 49° |
| 2026-05-07 08:56 | 7.06463 | 125.57471 | 1894 ft | 145 kts | 50° |
| 2026-05-07 08:56 | 7.07123 | 125.58242 | 1520 ft | 146 kts | 50° |
| 2026-05-07 08:57 | 7.07772 | 125.59001 | 1262 ft | 139 kts | 50° |
| 2026-05-07 08:57 | 7.08420 | 125.59761 | 996 ft | 144 kts | 50° |
| 2026-05-07 08:57 | 7.09072 | 125.60524 | 799 ft | 146 kts | 50° |
| 2026-05-07 08:57 | 7.09744 | 125.61290 | 629 ft | 146 kts | 50° |
| 2026-05-07 08:58 | 7.10413 | 125.62078 | 469 ft | 150 kts | 52° |
| 2026-05-07 08:58 | 7.11097 | 125.62891 | 290 ft | 152 kts | 51° |
| 2026-05-07 08:58 | 7.11784 | 125.63696 | 104 ft | 148 kts | 50° |
| 2026-05-07 08:58 | 7.12394 | 125.64410 | 74 ft | 118 kts | 46° |
| 2026-05-07 08:59 | 7.12835 | 125.64908 | 79 ft | 74 kts | 49° |
| 2026-05-07 08:59 | 7.13063 | 125.65171 | 80 ft | 11 kts | 49° |
| 2026-05-07 08:59 | 7.13079 | 125.65190 | 73 ft | 19 kts | 50° |
| 2026-05-07 08:59 | 7.13197 | 125.65329 | 75 ft | 30 kts | 50° |
| 2026-05-07 09:00 | 7.13334 | 125.65485 | 75 ft | 29 kts | 38° |
| 2026-05-07 09:00 | 7.13465 | 125.65536 | 80 ft | 11 kts | 58° |
| 2026-05-07 09:00 | 7.13458 | 125.65565 | 82 ft | 5 kts | 132° |
| 2026-05-07 09:00 | 7.13417 | 125.65579 | 80 ft | 8 kts | 189° |
| 2026-05-07 09:01 | 7.13375 | 125.65533 | 69 ft | 11 kts | 237° |
| 2026-05-07 09:01 | 7.13327 | 125.65464 | 70 ft | 13 kts | 234° |
| 2026-05-07 09:01 | 7.13264 | 125.65390 | 75 ft | 15 kts | 229° |
| 2026-05-07 09:01 | 7.13192 | 125.65304 | 78 ft | 17 kts | 229° |
| 2026-05-07 09:02 | 7.13107 | 125.65206 | 73 ft | 19 kts | 229° |
| 2026-05-07 09:02 | 7.13019 | 125.65101 | 84 ft | 20 kts | 230° |
| 2026-05-07 09:02 | 7.12925 | 125.64989 | 83 ft | 22 kts | 230° |
| 2026-05-07 09:02 | 7.12914 | 125.64889 | 79 ft | 9 kts | 323° |
| 2026-05-07 09:03 | 7.12968 | 125.64843 | 81 ft | 12 kts | 318° |
| 2026-05-07 09:03 | 7.13001 | 125.64768 | 79 ft | 13 kts | 254° |
| 2026-05-07 09:03 | 7.12946 | 125.64691 | 81 ft | 10 kts | 229° |
| 2026-05-07 09:03 | 7.12936 | 125.64654 | 72 ft | 1 kts | 331° |
| 2026-05-07 09:04 | 7.12949 | 125.64658 | 81 ft | 4 kts | 20° |
| 2026-05-07 09:04 | 7.12999 | 125.64671 | 80 ft | 10 kts | 354° |
| 2026-05-07 09:04 | 7.13023 | 125.64660 | 83 ft | 2 kts | 322° |
| 2026-05-07 09:04 | 7.13034 | 125.64651 | 81 ft | 0 kts | 322° |
| 2026-05-07 09:05 | 7.13035 | 125.64651 | 81 ft | 0 kts | 322° |